sensor_id;sensor_type;location;lat;lon;timestamp;P1;durP1;ratioP1;P2;durP2;ratioP2
48403;SDS011;34202;52.536;6.042;2024-03-06T00:01:07;50.10;;;34.50;;
48403;SDS011;34202;52.536;6.042;2024-03-06T00:06:07;52.00;;;35.20;;
48403;SDS011;34202;52.536;6.042;2024-03-06T00:11:08;49.00;;;35.20;;
48403;SDS011;34202;52.536;6.042;2024-03-06T00:16:08;58.30;;;35.40;;
48403;SDS011;34202;52.536;6.042;2024-03-06T00:21:09;46.10;;;33.30;;
48403;SDS011;34202;52.536;6.042;2024-03-06T00:26:10;50.80;;;34.90;;
48403;SDS011;34202;52.536;6.042;2024-03-06T00:31:11;51.10;;;35.30;;
48403;SDS011;34202;52.536;6.042;2024-03-06T00:36:11;53.90;;;37.50;;
48403;SDS011;34202;52.536;6.042;2024-03-06T00:41:12;53.80;;;35.20;;
48403;SDS011;34202;52.536;6.042;2024-03-06T00:46:12;49.90;;;34.20;;
48403;SDS011;34202;52.536;6.042;2024-03-06T00:51:12;50.30;;;35.50;;
48403;SDS011;34202;52.536;6.042;2024-03-06T00:56:13;55.60;;;37.10;;
48403;SDS011;34202;52.536;6.042;2024-03-06T01:01:14;59.70;;;38.10;;
48403;SDS011;34202;52.536;6.042;2024-03-06T01:06:15;48.70;;;34.90;;
48403;SDS011;34202;52.536;6.042;2024-03-06T01:11:16;59.00;;;35.80;;
48403;SDS011;34202;52.536;6.042;2024-03-06T01:16:16;52.60;;;36.70;;
48403;SDS011;34202;52.536;6.042;2024-03-06T01:21:17;54.20;;;34.90;;
48403;SDS011;34202;52.536;6.042;2024-03-06T01:26:17;60.10;;;37.90;;
48403;SDS011;34202;52.536;6.042;2024-03-06T01:31:18;57.40;;;36.50;;
48403;SDS011;34202;52.536;6.042;2024-03-06T01:36:18;58.00;;;36.20;;
48403;SDS011;34202;52.536;6.042;2024-03-06T01:41:19;57.70;;;37.30;;
48403;SDS011;34202;52.536;6.042;2024-03-06T01:46:19;61.20;;;39.00;;
48403;SDS011;34202;52.536;6.042;2024-03-06T01:51:20;64.50;;;39.70;;
48403;SDS011;34202;52.536;6.042;2024-03-06T01:56:20;64.70;;;40.50;;
48403;SDS011;34202;52.536;6.042;2024-03-06T02:01:21;61.10;;;37.30;;
48403;SDS011;34202;52.536;6.042;2024-03-06T02:06:22;56.40;;;38.10;;
48403;SDS011;34202;52.536;6.042;2024-03-06T02:11:23;62.40;;;39.60;;
48403;SDS011;34202;52.536;6.042;2024-03-06T02:16:23;74.70;;;40.30;;
48403;SDS011;34202;52.536;6.042;2024-03-06T02:21:24;67.40;;;39.30;;
48403;SDS011;34202;52.536;6.042;2024-03-06T02:26:25;63.30;;;39.90;;
48403;SDS011;34202;52.536;6.042;2024-03-06T02:31:25;61.50;;;39.50;;
48403;SDS011;34202;52.536;6.042;2024-03-06T02:36:26;62.40;;;39.20;;
48403;SDS011;34202;52.536;6.042;2024-03-06T02:41:26;65.10;;;40.90;;
48403;SDS011;34202;52.536;6.042;2024-03-06T02:46:27;69.70;;;40.60;;
48403;SDS011;34202;52.536;6.042;2024-03-06T02:51:27;64.70;;;39.80;;
48403;SDS011;34202;52.536;6.042;2024-03-06T02:56:28;63.20;;;40.20;;
48403;SDS011;34202;52.536;6.042;2024-03-06T03:01:28;65.20;;;39.80;;
48403;SDS011;34202;52.536;6.042;2024-03-06T03:06:30;76.20;;;42.00;;
48403;SDS011;34202;52.536;6.042;2024-03-06T03:11:30;65.20;;;38.40;;
48403;SDS011;34202;52.536;6.042;2024-03-06T03:16:32;65.70;;;39.90;;
48403;SDS011;34202;52.536;6.042;2024-03-06T03:21:32;73.00;;;42.90;;
48403;SDS011;34202;52.536;6.042;2024-03-06T03:26:33;73.70;;;43.90;;
48403;SDS011;34202;52.536;6.042;2024-03-06T03:31:33;60.20;;;38.90;;
48403;SDS011;34202;52.536;6.042;2024-03-06T03:36:33;63.70;;;38.80;;
48403;SDS011;34202;52.536;6.042;2024-03-06T03:41:34;63.30;;;40.00;;
48403;SDS011;34202;52.536;6.042;2024-03-06T03:46:35;62.00;;;38.40;;
48403;SDS011;34202;52.536;6.042;2024-03-06T03:51:36;56.40;;;35.00;;
48403;SDS011;34202;52.536;6.042;2024-03-06T03:56:37;57.70;;;37.40;;
48403;SDS011;34202;52.536;6.042;2024-03-06T04:01:37;61.20;;;37.60;;
48403;SDS011;34202;52.536;6.042;2024-03-06T04:06:38;66.10;;;39.70;;
48403;SDS011;34202;52.536;6.042;2024-03-06T04:11:38;63.80;;;38.10;;
48403;SDS011;34202;52.536;6.042;2024-03-06T04:16:39;67.80;;;37.90;;
48403;SDS011;34202;52.536;6.042;2024-03-06T04:21:42;62.00;;;40.90;;
48403;SDS011;34202;52.536;6.042;2024-03-06T04:26:43;63.80;;;38.60;;
48403;SDS011;34202;52.536;6.042;2024-03-06T04:31:43;60.90;;;38.80;;
48403;SDS011;34202;52.536;6.042;2024-03-06T04:36:43;59.80;;;38.20;;
48403;SDS011;34202;52.536;6.042;2024-03-06T04:41:44;66.70;;;39.70;;
48403;SDS011;34202;52.536;6.042;2024-03-06T04:46:44;62.10;;;38.40;;
48403;SDS011;34202;52.536;6.042;2024-03-06T04:51:45;62.20;;;39.40;;
48403;SDS011;34202;52.536;6.042;2024-03-06T04:56:45;64.40;;;39.30;;
48403;SDS011;34202;52.536;6.042;2024-03-06T05:01:45;72.70;;;41.80;;
48403;SDS011;34202;52.536;6.042;2024-03-06T05:06:46;75.30;;;41.30;;
48403;SDS011;34202;52.536;6.042;2024-03-06T05:11:47;70.00;;;41.40;;
48403;SDS011;34202;52.536;6.042;2024-03-06T05:16:50;67.30;;;39.50;;
48403;SDS011;34202;52.536;6.042;2024-03-06T05:21:51;68.30;;;40.70;;
48403;SDS011;34202;52.536;6.042;2024-03-06T05:26:51;68.10;;;37.90;;
48403;SDS011;34202;52.536;6.042;2024-03-06T05:31:52;66.10;;;42.00;;
48403;SDS011;34202;52.536;6.042;2024-03-06T05:36:52;69.70;;;39.70;;
48403;SDS011;34202;52.536;6.042;2024-03-06T05:41:59;64.00;;;40.20;;
48403;SDS011;34202;52.536;6.042;2024-03-06T05:47:02;62.30;;;38.50;;
48403;SDS011;34202;52.536;6.042;2024-03-06T05:52:03;62.90;;;38.40;;
48403;SDS011;34202;52.536;6.042;2024-03-06T05:57:04;53.80;;;36.70;;
48403;SDS011;34202;52.536;6.042;2024-03-06T06:02:04;68.90;;;37.30;;
48403;SDS011;34202;52.536;6.042;2024-03-06T06:07:05;59.90;;;38.10;;
48403;SDS011;34202;52.536;6.042;2024-03-06T06:12:05;59.00;;;37.50;;
48403;SDS011;34202;52.536;6.042;2024-03-06T06:17:06;61.50;;;37.20;;
48403;SDS011;34202;52.536;6.042;2024-03-06T06:22:06;65.80;;;38.10;;
48403;SDS011;34202;52.536;6.042;2024-03-06T06:27:07;60.10;;;38.30;;
48403;SDS011;34202;52.536;6.042;2024-03-06T06:32:08;63.50;;;37.40;;
48403;SDS011;34202;52.536;6.042;2024-03-06T06:37:09;69.50;;;40.80;;
48403;SDS011;34202;52.536;6.042;2024-03-06T06:42:09;62.00;;;38.60;;
48403;SDS011;34202;52.536;6.042;2024-03-06T06:47:10;64.20;;;38.20;;
48403;SDS011;34202;52.536;6.042;2024-03-06T06:52:11;62.80;;;37.30;;
48403;SDS011;34202;52.536;6.042;2024-03-06T06:57:11;61.00;;;38.80;;
48403;SDS011;34202;52.536;6.042;2024-03-06T07:02:12;59.30;;;38.90;;
48403;SDS011;34202;52.536;6.042;2024-03-06T07:07:13;61.70;;;38.10;;
48403;SDS011;34202;52.536;6.042;2024-03-06T07:12:13;66.60;;;37.20;;
48403;SDS011;34202;52.536;6.042;2024-03-06T07:17:14;63.10;;;37.60;;
48403;SDS011;34202;52.536;6.042;2024-03-06T07:22:14;66.30;;;36.70;;
48403;SDS011;34202;52.536;6.042;2024-03-06T07:27:15;65.70;;;39.80;;
48403;SDS011;34202;52.536;6.042;2024-03-06T07:32:15;62.90;;;38.90;;
48403;SDS011;34202;52.536;6.042;2024-03-06T07:37:16;64.10;;;35.50;;
48403;SDS011;34202;52.536;6.042;2024-03-06T07:42:16;65.80;;;36.50;;
48403;SDS011;34202;52.536;6.042;2024-03-06T07:47:18;60.50;;;37.20;;
48403;SDS011;34202;52.536;6.042;2024-03-06T07:52:20;56.20;;;35.40;;
48403;SDS011;34202;52.536;6.042;2024-03-06T07:57:20;63.50;;;38.70;;
48403;SDS011;34202;52.536;6.042;2024-03-06T08:02:21;59.40;;;35.80;;
48403;SDS011;34202;52.536;6.042;2024-03-06T08:07:22;65.90;;;37.70;;
48403;SDS011;34202;52.536;6.042;2024-03-06T08:12:22;63.50;;;37.80;;
48403;SDS011;34202;52.536;6.042;2024-03-06T08:17:22;61.60;;;38.30;;
48403;SDS011;34202;52.536;6.042;2024-03-06T08:22:23;57.20;;;33.70;;
48403;SDS011;34202;52.536;6.042;2024-03-06T08:27:23;66.20;;;32.50;;
48403;SDS011;34202;52.536;6.042;2024-03-06T08:32:24;62.00;;;32.50;;
48403;SDS011;34202;52.536;6.042;2024-03-06T08:37:24;52.10;;;31.40;;
48403;SDS011;34202;52.536;6.042;2024-03-06T08:42:25;50.30;;;29.60;;
48403;SDS011;34202;52.536;6.042;2024-03-06T08:47:26;58.40;;;32.00;;
48403;SDS011;34202;52.536;6.042;2024-03-06T08:52:26;57.80;;;31.90;;
48403;SDS011;34202;52.536;6.042;2024-03-06T08:57:26;54.30;;;31.30;;
48403;SDS011;34202;52.536;6.042;2024-03-06T09:02:28;47.40;;;28.80;;
48403;SDS011;34202;52.536;6.042;2024-03-06T09:07:28;50.70;;;27.40;;
48403;SDS011;34202;52.536;6.042;2024-03-06T09:12:29;47.40;;;27.00;;
48403;SDS011;34202;52.536;6.042;2024-03-06T09:17:29;44.20;;;27.10;;
48403;SDS011;34202;52.536;6.042;2024-03-06T09:22:30;41.20;;;27.10;;
48403;SDS011;34202;52.536;6.042;2024-03-06T09:27:31;42.30;;;26.20;;
48403;SDS011;34202;52.536;6.042;2024-03-06T09:32:32;43.50;;;26.90;;
48403;SDS011;34202;52.536;6.042;2024-03-06T09:37:32;46.70;;;27.90;;
48403;SDS011;34202;52.536;6.042;2024-03-06T09:42:32;46.60;;;27.40;;
48403;SDS011;34202;52.536;6.042;2024-03-06T09:47:33;38.70;;;26.40;;
48403;SDS011;34202;52.536;6.042;2024-03-06T09:52:35;40.20;;;26.90;;
48403;SDS011;34202;52.536;6.042;2024-03-06T09:57:36;40.50;;;24.40;;
48403;SDS011;34202;52.536;6.042;2024-03-06T10:02:37;43.20;;;26.30;;
48403;SDS011;34202;52.536;6.042;2024-03-06T10:07:39;42.60;;;25.70;;
48403;SDS011;34202;52.536;6.042;2024-03-06T10:12:41;41.80;;;24.60;;
48403;SDS011;34202;52.536;6.042;2024-03-06T10:17:42;39.80;;;25.40;;
48403;SDS011;34202;52.536;6.042;2024-03-06T10:22:47;38.40;;;24.90;;
48403;SDS011;34202;52.536;6.042;2024-03-06T10:28:05;36.50;;;24.70;;
48403;SDS011;34202;52.536;6.042;2024-03-06T10:33:07;39.90;;;26.20;;
48403;SDS011;34202;52.536;6.042;2024-03-06T10:38:09;40.90;;;26.70;;
48403;SDS011;34202;52.536;6.042;2024-03-06T10:43:11;38.40;;;26.40;;
48403;SDS011;34202;52.536;6.042;2024-03-06T10:48:15;39.80;;;26.30;;
48403;SDS011;34202;52.536;6.042;2024-03-06T10:53:17;42.30;;;26.20;;
48403;SDS011;34202;52.536;6.042;2024-03-06T10:58:18;44.20;;;25.60;;
48403;SDS011;34202;52.536;6.042;2024-03-06T11:03:20;40.10;;;26.70;;
48403;SDS011;34202;52.536;6.042;2024-03-06T11:08:21;45.90;;;27.40;;
48403;SDS011;34202;52.536;6.042;2024-03-06T11:13:22;39.60;;;27.40;;
48403;SDS011;34202;52.536;6.042;2024-03-06T11:23:29;37.90;;;25.00;;
48403;SDS011;34202;52.536;6.042;2024-03-06T11:28:31;41.20;;;26.80;;
48403;SDS011;34202;52.536;6.042;2024-03-06T11:33:40;36.40;;;24.90;;
48403;SDS011;34202;52.536;6.042;2024-03-06T11:38:42;41.00;;;26.60;;
48403;SDS011;34202;52.536;6.042;2024-03-06T11:43:46;40.40;;;26.10;;
48403;SDS011;34202;52.536;6.042;2024-03-06T11:48:53;41.80;;;27.10;;
48403;SDS011;34202;52.536;6.042;2024-03-06T11:53:55;35.70;;;24.80;;
48403;SDS011;34202;52.536;6.042;2024-03-06T11:58:55;39.50;;;26.50;;
48403;SDS011;34202;52.536;6.042;2024-03-06T12:03:55;44.00;;;28.80;;
48403;SDS011;34202;52.536;6.042;2024-03-06T12:08:57;42.20;;;27.00;;
48403;SDS011;34202;52.536;6.042;2024-03-06T12:13:58;40.50;;;28.20;;
48403;SDS011;34202;52.536;6.042;2024-03-06T12:18:59;39.90;;;27.50;;
48403;SDS011;34202;52.536;6.042;2024-03-06T12:24:06;36.90;;;25.90;;
48403;SDS011;34202;52.536;6.042;2024-03-06T12:29:09;38.60;;;26.20;;
48403;SDS011;34202;52.536;6.042;2024-03-06T12:34:16;35.80;;;24.20;;
48403;SDS011;34202;52.536;6.042;2024-03-06T12:39:17;32.20;;;22.70;;
48403;SDS011;34202;52.536;6.042;2024-03-06T12:44:21;41.70;;;24.30;;
48403;SDS011;34202;52.536;6.042;2024-03-06T12:49:22;33.50;;;24.30;;
48403;SDS011;34202;52.536;6.042;2024-03-06T12:54:22;34.10;;;23.60;;
48403;SDS011;34202;52.536;6.042;2024-03-06T12:59:23;35.30;;;23.40;;
48403;SDS011;34202;52.536;6.042;2024-03-06T13:04:23;32.90;;;24.50;;
48403;SDS011;34202;52.536;6.042;2024-03-06T13:09:24;31.20;;;21.80;;
48403;SDS011;34202;52.536;6.042;2024-03-06T13:14:25;31.20;;;22.50;;
48403;SDS011;34202;52.536;6.042;2024-03-06T13:19:25;30.10;;;21.30;;
48403;SDS011;34202;52.536;6.042;2024-03-06T13:24:26;27.20;;;18.00;;
48403;SDS011;34202;52.536;6.042;2024-03-06T13:29:26;29.80;;;18.90;;
48403;SDS011;34202;52.536;6.042;2024-03-06T13:34:26;29.40;;;20.00;;
48403;SDS011;34202;52.536;6.042;2024-03-06T13:39:27;27.80;;;21.40;;
48403;SDS011;34202;52.536;6.042;2024-03-06T13:44:27;25.30;;;18.60;;
48403;SDS011;34202;52.536;6.042;2024-03-06T13:49:35;22.70;;;17.00;;
48403;SDS011;34202;52.536;6.042;2024-03-06T13:54:40;20.60;;;16.10;;
48403;SDS011;34202;52.536;6.042;2024-03-06T13:59:42;21.90;;;16.60;;
48403;SDS011;34202;52.536;6.042;2024-03-06T14:04:42;21.60;;;17.10;;
48403;SDS011;34202;52.536;6.042;2024-03-06T14:09:43;21.70;;;16.20;;
48403;SDS011;34202;52.536;6.042;2024-03-06T14:14:43;25.50;;;18.60;;
48403;SDS011;34202;52.536;6.042;2024-03-06T14:19:46;31.70;;;19.60;;
48403;SDS011;34202;52.536;6.042;2024-03-06T14:24:47;25.20;;;19.40;;
48403;SDS011;34202;52.536;6.042;2024-03-06T14:29:47;27.20;;;18.60;;
48403;SDS011;34202;52.536;6.042;2024-03-06T14:34:48;24.20;;;18.60;;
48403;SDS011;34202;52.536;6.042;2024-03-06T14:39:48;24.10;;;16.90;;
48403;SDS011;34202;52.536;6.042;2024-03-06T14:44:51;24.00;;;16.50;;
48403;SDS011;34202;52.536;6.042;2024-03-06T14:49:51;24.00;;;16.20;;
48403;SDS011;34202;52.536;6.042;2024-03-06T14:54:52;22.90;;;16.50;;
48403;SDS011;34202;52.536;6.042;2024-03-06T14:59:52;25.30;;;16.30;;
48403;SDS011;34202;52.536;6.042;2024-03-06T15:04:53;23.60;;;16.80;;
48403;SDS011;34202;52.536;6.042;2024-03-06T15:09:53;23.20;;;15.70;;
48403;SDS011;34202;52.536;6.042;2024-03-06T15:14:53;26.40;;;16.70;;
48403;SDS011;34202;52.536;6.042;2024-03-06T15:19:56;25.00;;;17.80;;
48403;SDS011;34202;52.536;6.042;2024-03-06T15:24:57;25.90;;;18.70;;
48403;SDS011;34202;52.536;6.042;2024-03-06T15:29:57;25.70;;;19.50;;
48403;SDS011;34202;52.536;6.042;2024-03-06T15:34:58;23.80;;;17.80;;
48403;SDS011;34202;52.536;6.042;2024-03-06T15:39:59;22.30;;;16.10;;
48403;SDS011;34202;52.536;6.042;2024-03-06T15:44:59;26.00;;;18.90;;
48403;SDS011;34202;52.536;6.042;2024-03-06T15:50:00;32.10;;;20.00;;
48403;SDS011;34202;52.536;6.042;2024-03-06T15:55:00;31.20;;;21.00;;
48403;SDS011;34202;52.536;6.042;2024-03-06T16:00:04;32.80;;;21.60;;
48403;SDS011;34202;52.536;6.042;2024-03-06T16:10:08;24.20;;;17.10;;
48403;SDS011;34202;52.536;6.042;2024-03-06T16:15:10;25.60;;;19.50;;
48403;SDS011;34202;52.536;6.042;2024-03-06T16:20:10;31.30;;;20.10;;
48403;SDS011;34202;52.536;6.042;2024-03-06T16:25:11;29.60;;;20.50;;
48403;SDS011;34202;52.536;6.042;2024-03-06T16:30:12;29.20;;;21.10;;
48403;SDS011;34202;52.536;6.042;2024-03-06T16:35:12;33.00;;;22.00;;
48403;SDS011;34202;52.536;6.042;2024-03-06T16:40:13;37.00;;;23.20;;
48403;SDS011;34202;52.536;6.042;2024-03-06T16:45:14;29.80;;;22.30;;
48403;SDS011;34202;52.536;6.042;2024-03-06T16:50:15;29.60;;;20.40;;
48403;SDS011;34202;52.536;6.042;2024-03-06T16:55:15;31.00;;;22.40;;
48403;SDS011;34202;52.536;6.042;2024-03-06T17:00:16;28.00;;;20.50;;
48403;SDS011;34202;52.536;6.042;2024-03-06T17:05:16;30.70;;;19.80;;
48403;SDS011;34202;52.536;6.042;2024-03-06T17:10:17;30.20;;;21.50;;
48403;SDS011;34202;52.536;6.042;2024-03-06T17:15:17;37.00;;;22.60;;
48403;SDS011;34202;52.536;6.042;2024-03-06T17:20:19;29.30;;;21.10;;
48403;SDS011;34202;52.536;6.042;2024-03-06T17:25:20;33.50;;;22.10;;
48403;SDS011;34202;52.536;6.042;2024-03-06T17:30:20;31.10;;;21.80;;
48403;SDS011;34202;52.536;6.042;2024-03-06T17:35:22;30.00;;;21.50;;
48403;SDS011;34202;52.536;6.042;2024-03-06T17:40:22;32.80;;;22.10;;
48403;SDS011;34202;52.536;6.042;2024-03-06T17:45:23;32.30;;;22.70;;
48403;SDS011;34202;52.536;6.042;2024-03-06T17:50:25;28.80;;;20.10;;
48403;SDS011;34202;52.536;6.042;2024-03-06T17:55:25;30.20;;;20.10;;
48403;SDS011;34202;52.536;6.042;2024-03-06T18:00:26;33.60;;;23.70;;
48403;SDS011;34202;52.536;6.042;2024-03-06T18:05:26;32.90;;;21.20;;
48403;SDS011;34202;52.536;6.042;2024-03-06T18:10:27;31.60;;;20.00;;
48403;SDS011;34202;52.536;6.042;2024-03-06T18:15:28;31.80;;;21.50;;
48403;SDS011;34202;52.536;6.042;2024-03-06T18:20:29;33.00;;;21.40;;
48403;SDS011;34202;52.536;6.042;2024-03-06T18:25:29;30.30;;;20.60;;
48403;SDS011;34202;52.536;6.042;2024-03-06T18:30:30;36.10;;;22.40;;
48403;SDS011;34202;52.536;6.042;2024-03-06T18:35:31;35.70;;;22.30;;
48403;SDS011;34202;52.536;6.042;2024-03-06T18:40:31;40.90;;;22.40;;
48403;SDS011;34202;52.536;6.042;2024-03-06T18:45:32;37.90;;;21.40;;
48403;SDS011;34202;52.536;6.042;2024-03-06T18:50:33;38.90;;;23.10;;
48403;SDS011;34202;52.536;6.042;2024-03-06T18:55:33;33.00;;;21.30;;
48403;SDS011;34202;52.536;6.042;2024-03-06T19:00:33;31.90;;;21.30;;
48403;SDS011;34202;52.536;6.042;2024-03-06T19:05:34;35.80;;;21.50;;
48403;SDS011;34202;52.536;6.042;2024-03-06T19:10:35;33.20;;;22.30;;
48403;SDS011;34202;52.536;6.042;2024-03-06T19:15:35;33.70;;;21.30;;
48403;SDS011;34202;52.536;6.042;2024-03-06T19:20:36;33.40;;;21.60;;
48403;SDS011;34202;52.536;6.042;2024-03-06T19:25:39;31.90;;;21.70;;
48403;SDS011;34202;52.536;6.042;2024-03-06T19:30:39;35.30;;;21.90;;
48403;SDS011;34202;52.536;6.042;2024-03-06T19:35:40;35.20;;;22.80;;
48403;SDS011;34202;52.536;6.042;2024-03-06T19:40:41;38.60;;;22.70;;
48403;SDS011;34202;52.536;6.042;2024-03-06T19:45:42;32.30;;;20.00;;
48403;SDS011;34202;52.536;6.042;2024-03-06T19:50:42;32.20;;;21.50;;
48403;SDS011;34202;52.536;6.042;2024-03-06T19:55:46;33.20;;;22.20;;
48403;SDS011;34202;52.536;6.042;2024-03-06T20:00:48;38.60;;;23.30;;
48403;SDS011;34202;52.536;6.042;2024-03-06T20:05:48;32.50;;;21.80;;
48403;SDS011;34202;52.536;6.042;2024-03-06T20:10:49;38.50;;;23.50;;
48403;SDS011;34202;52.536;6.042;2024-03-06T20:15:49;34.60;;;22.30;;
48403;SDS011;34202;52.536;6.042;2024-03-06T20:20:50;38.40;;;24.50;;
48403;SDS011;34202;52.536;6.042;2024-03-06T20:25:50;38.90;;;24.90;;
48403;SDS011;34202;52.536;6.042;2024-03-06T20:30:51;35.20;;;24.10;;
48403;SDS011;34202;52.536;6.042;2024-03-06T20:35:52;38.50;;;24.10;;
48403;SDS011;34202;52.536;6.042;2024-03-06T20:40:53;40.40;;;24.90;;
48403;SDS011;34202;52.536;6.042;2024-03-06T20:45:53;36.10;;;24.20;;
48403;SDS011;34202;52.536;6.042;2024-03-06T20:50:54;43.90;;;23.80;;
48403;SDS011;34202;52.536;6.042;2024-03-06T20:55:55;37.90;;;23.80;;
48403;SDS011;34202;52.536;6.042;2024-03-06T21:00:55;38.20;;;24.20;;
48403;SDS011;34202;52.536;6.042;2024-03-06T21:05:56;37.90;;;24.70;;
48403;SDS011;34202;52.536;6.042;2024-03-06T21:10:56;37.30;;;23.40;;
48403;SDS011;34202;52.536;6.042;2024-03-06T21:15:58;35.70;;;24.70;;
48403;SDS011;34202;52.536;6.042;2024-03-06T21:20:59;41.10;;;27.00;;
48403;SDS011;34202;52.536;6.042;2024-03-06T21:26:00;37.80;;;24.10;;
48403;SDS011;34202;52.536;6.042;2024-03-06T21:31:01;40.40;;;24.70;;
48403;SDS011;34202;52.536;6.042;2024-03-06T21:36:01;41.70;;;24.40;;
48403;SDS011;34202;52.536;6.042;2024-03-06T21:41:02;40.40;;;24.80;;
48403;SDS011;34202;52.536;6.042;2024-03-06T21:46:03;46.70;;;28.80;;
48403;SDS011;34202;52.536;6.042;2024-03-06T21:51:03;39.80;;;24.90;;
48403;SDS011;34202;52.536;6.042;2024-03-06T21:56:04;42.20;;;27.10;;
48403;SDS011;34202;52.536;6.042;2024-03-06T22:01:04;49.30;;;29.90;;
48403;SDS011;34202;52.536;6.042;2024-03-06T22:06:05;57.70;;;33.50;;
48403;SDS011;34202;52.536;6.042;2024-03-06T22:11:06;49.80;;;28.50;;
48403;SDS011;34202;52.536;6.042;2024-03-06T22:16:11;42.70;;;26.00;;
48403;SDS011;34202;52.536;6.042;2024-03-06T22:21:12;40.90;;;26.20;;
48403;SDS011;34202;52.536;6.042;2024-03-06T22:26:14;44.10;;;25.70;;
48403;SDS011;34202;52.536;6.042;2024-03-06T22:31:14;43.70;;;26.00;;
48403;SDS011;34202;52.536;6.042;2024-03-06T22:36:15;45.00;;;27.40;;
48403;SDS011;34202;52.536;6.042;2024-03-06T22:41:20;43.10;;;27.90;;
48403;SDS011;34202;52.536;6.042;2024-03-06T22:46:21;44.00;;;25.90;;
48403;SDS011;34202;52.536;6.042;2024-03-06T22:51:23;45.70;;;27.70;;
48403;SDS011;34202;52.536;6.042;2024-03-06T22:56:23;46.40;;;27.60;;
48403;SDS011;34202;52.536;6.042;2024-03-06T23:01:24;43.40;;;28.90;;
48403;SDS011;34202;52.536;6.042;2024-03-06T23:06:24;46.80;;;27.90;;
48403;SDS011;34202;52.536;6.042;2024-03-06T23:11:25;41.40;;;27.20;;
48403;SDS011;34202;52.536;6.042;2024-03-06T23:16:25;52.30;;;26.50;;
48403;SDS011;34202;52.536;6.042;2024-03-06T23:23:58;45.80;;;26.70;;
48403;SDS011;34202;52.536;6.042;2024-03-06T23:28:58;46.60;;;28.50;;
48403;SDS011;34202;52.536;6.042;2024-03-06T23:33:59;49.60;;;27.90;;
48403;SDS011;34202;52.536;6.042;2024-03-06T23:38:59;45.10;;;28.00;;
48403;SDS011;34202;52.536;6.042;2024-03-06T23:44:00;49.50;;;28.40;;
48403;SDS011;34202;52.536;6.042;2024-03-06T23:49:00;42.50;;;27.10;;
48403;SDS011;34202;52.536;6.042;2024-03-06T23:54:00;47.70;;;28.30;;
48403;SDS011;34202;52.536;6.042;2024-03-06T23:59:01;50.40;;;28.70;;
